createdAt,value
2019-05-05T00:11:31.913Z,40.40
2019-05-05T00:24:39.056Z,40.60
2019-05-05T00:37:46.253Z,40.80
2019-05-05T00:50:55.483Z,41.00
2019-05-05T01:04:00.664Z,41.00
2019-05-05T01:31:05.617Z,41.40
2019-05-05T01:44:26.589Z,41.40
2019-05-05T01:57:49.437Z,41.60
2019-05-05T02:11:12.250Z,41.60
2019-05-05T02:37:36.681Z,41.70
2019-05-05T02:50:52.426Z,41.70
2019-05-05T03:03:51.126Z,41.80
2019-05-05T03:16:58.267Z,41.90
2019-05-05T03:30:05.478Z,41.90
2019-05-05T03:56:15.234Z,41.90
2019-05-05T04:09:24.229Z,42.00
2019-05-05T04:22:29.726Z,42.10
2019-05-05T04:35:36.940Z,42.10
2019-05-05T04:48:44.169Z,42.20
2019-05-05T05:41:55.914Z,42.40
2019-05-05T05:55:04.027Z,42.40
2019-05-05T06:08:10.387Z,42.40
2019-05-05T06:21:17.574Z,42.50
2019-05-05T06:34:24.849Z,42.50
2019-05-05T06:47:33.882Z,39.10
2019-05-05T07:00:55.765Z,42.20
2019-05-05T07:14:18.450Z,43.90
2019-05-05T07:27:41.248Z,43.90
2019-05-05T07:41:04.079Z,43.90
2019-05-05T08:08:01.669Z,43.70
2019-05-05T08:21:08.885Z,40.10
2019-05-05T08:34:16.256Z,41.40
2019-05-05T09:02:59.277Z,44.80
2019-05-05T09:29:56.625Z,45.90
2019-05-05T10:23:16.184Z,48.10
2019-05-05T10:36:39.178Z,46.40
2019-05-05T11:16:31.428Z,46.80
2019-05-05T11:29:54.192Z,47.00
2019-05-05T12:01:34.509Z,49.10
2019-05-05T12:14:57.368Z,49.10
2019-05-05T12:28:20.087Z,50.00
2019-05-05T12:41:42.950Z,48.70
2019-05-05T12:55:05.688Z,48.20
2019-05-05T13:08:28.645Z,48.60
2019-05-05T13:21:51.361Z,45.40
2019-05-05T13:35:14.423Z,45.10
2019-05-05T13:48:36.980Z,41.10
2019-05-05T14:01:59.797Z,43.10
2019-05-05T14:15:23.469Z,44.30
2019-05-05T14:54:54.567Z,28.80
2019-05-05T15:08:01.485Z,28.00
2019-05-05T15:34:12.761Z,29.40
2019-05-05T16:00:25.727Z,30.60
2019-05-05T16:13:35.070Z,33.30
2019-05-05T16:26:40.345Z,36.60
2019-05-05T16:39:47.640Z,37.50
2019-05-05T16:52:55.277Z,36.20
2019-05-05T17:06:19.095Z,38.10
2019-05-05T17:19:41.940Z,39.80
2019-05-05T17:33:04.618Z,41.80
2019-05-05T17:46:27.769Z,42.50
2019-05-05T17:59:50.288Z,43.00
2019-05-05T18:26:14.697Z,43.40
2019-05-05T18:39:22.026Z,44.30
2019-05-05T19:18:56.924Z,44.50
2019-05-05T19:32:05.327Z,44.90
2019-05-05T19:45:12.815Z,44.30
2019-05-05T19:58:20.371Z,44.50
2019-05-05T20:11:44.025Z,44.40
2019-05-05T20:25:07.447Z,44.30
2019-05-05T20:38:29.477Z,35.40
2019-05-05T20:51:52.165Z,37.10
2019-05-05T21:05:14.975Z,38.60
2019-05-05T21:18:38.283Z,39.20
2019-05-05T21:32:00.591Z,39.70
2019-05-05T21:45:23.413Z,35.40
2019-05-05T21:58:46.263Z,36.90
2019-05-05T22:12:09.036Z,37.70
2019-05-05T22:25:34.081Z,38.30
2019-05-05T22:38:54.666Z,39.00
2019-05-05T22:52:17.486Z,39.10
2019-05-05T23:05:40.335Z,39.20
2019-05-05T23:32:37.725Z,39.40
2019-05-05T23:45:44.967Z,39.50
2019-05-05T23:58:52.104Z,39.60
